Time,TemperatureF,DewpointF,PressureIn,WindDirection,WindDirectionDegrees,WindSpeedMPH,WindSpeedGustMPH,Humidity,HourlyPrecipIn,Conditions,Clouds,dailyrainin,SoftwareType,DateUTC
2013-03-31 00:00:00,31.9,21.4,29.98,North,-999,-999.0,-999.0,54,-99.99,,,-99.99,Homeseer,2013-03-31 04:00:00,
2013-03-31 00:03:00,31.9,21.4,29.98,North,-999,-999.0,-999.0,54,-99.99,,,-99.99,Homeseer,2013-03-31 04:03:00,
2013-03-31 00:07:00,31.7,21.5,29.99,North,-999,-999.0,-999.0,55,-99.99,,,-99.99,Homeseer,2013-03-31 04:07:00,
2013-03-31 00:08:00,31.7,21.5,29.99,North,-999,-999.0,-999.0,55,-99.99,,,-99.99,Homeseer,2013-03-31 04:08:00,
2013-03-31 00:13:00,31.6,20.9,29.99,North,-999,-999.0,-999.0,53,-99.99,,,-99.99,Homeseer,2013-03-31 04:13:00,
2013-03-31 00:18:00,31.6,21.5,29.99,North,-999,-999.0,-999.0,55,-99.99,,,-99.99,Homeseer,2013-03-31 04:18:00,
2013-03-31 00:23:00,31.5,21.7,29.99,North,-999,-999.0,-999.0,56,-99.99,,,-99.99,Homeseer,2013-03-31 04:23:00,
2013-03-31 00:28:00,31.5,22.5,29.99,North,-999,-999.0,-999.0,59,-99.99,,,-99.99,Homeseer,2013-03-31 04:28:00,
2013-03-31 00:33:00,31.5,21.9,29.99,North,-999,-999.0,-999.0,57,-99.99,,,-99.99,Homeseer,2013-03-31 04:33:00,
2013-03-31 00:38:00,31.4,21.9,29.99,North,-999,-999.0,-999.0,57,-99.99,,,-99.99,Homeseer,2013-03-31 04:38:00,
2013-03-31 00:43:00,31.5,21.9,29.99,North,-999,-999.0,-999.0,57,-99.99,,,-99.99,Homeseer,2013-03-31 04:43:00,
2013-03-31 00:48:00,31.4,22.4,30.00,North,-999,-999.0,-999.0,59,-99.99,,,-99.99,Homeseer,2013-03-31 04:48:00,
2013-03-31 00:53:00,31.2,23.1,30.00,North,-999,-999.0,-999.0,62,-99.99,,,-99.99,Homeseer,2013-03-31 04:53:00,
2013-03-31 00:58:00,31.1,22.7,30.00,North,-999,-999.0,-999.0,61,-99.99,,,-99.99,Homeseer,2013-03-31 04:58:00,
2013-03-31 01:04:00,31.0,23.4,30.00,North,-999,-999.0,-999.0,64,-99.99,,,-99.99,Homeseer,2013-03-31 05:04:00,
2013-03-31 01:09:00,30.7,22.8,30.00,North,-999,-999.0,-999.0,63,-99.99,,,-99.99,Homeseer,2013-03-31 05:09:00,
2013-03-31 01:14:00,30.6,22.2,30.00,North,-999,-999.0,-999.0,61,-99.99,,,-99.99,Homeseer,2013-03-31 05:14:00,
2013-03-31 01:19:00,30.5,22.1,30.00,North,-999,-999.0,-999.0,61,-99.99,,,-99.99,Homeseer,2013-03-31 05:19:00,
2013-03-31 01:24:00,30.2,22.1,30.00,North,-999,-999.0,-999.0,62,-99.99,,,-99.99,Homeseer,2013-03-31 05:24:00,
2013-03-31 01:29:00,30.2,21.8,30.00,North,-999,-999.0,-999.0,61,-99.99,,,-99.99,Homeseer,2013-03-31 05:29:00,
2013-03-31 01:34:00,30.0,21.9,29.99,North,-999,-999.0,-999.0,62,-99.99,,,-99.99,Homeseer,2013-03-31 05:34:00,
2013-03-31 01:39:00,30.1,21.7,29.99,North,-999,-999.0,-999.0,61,-99.99,,,-99.99,Homeseer,2013-03-31 05:39:00,
2013-03-31 01:44:00,30.1,22.3,29.99,North,-999,-999.0,-999.0,63,-99.99,,,-99.99,Homeseer,2013-03-31 05:44:00,
2013-03-31 01:49:00,30.1,22.8,30.00,North,-999,-999.0,-999.0,65,-99.99,,,-99.99,Homeseer,2013-03-31 05:49:00,
2013-03-31 01:54:00,29.9,22.9,29.99,North,-999,-999.0,-999.0,66,-99.99,,,-99.99,Homeseer,2013-03-31 05:54:00,
2013-03-31 01:59:00,29.6,22.3,29.99,North,-999,-999.0,-999.0,65,-99.99,,,-99.99,Homeseer,2013-03-31 05:59:00,
2013-03-31 02:04:00,29.3,22.0,29.99,North,-999,-999.0,-999.0,65,-99.99,,,-99.99,Homeseer,2013-03-31 06:04:00,
2013-03-31 02:09:00,29.4,22.1,29.99,North,-999,-999.0,-999.0,65,-99.99,,,-99.99,Homeseer,2013-03-31 06:09:00,
2013-03-31 02:14:00,29.3,21.8,29.99,North,-999,-999.0,-999.0,64,-99.99,,,-99.99,Homeseer,2013-03-31 06:14:00,
2013-03-31 02:19:00,29.3,21.8,29.99,North,-999,-999.0,-999.0,64,-99.99,,,-99.99,Homeseer,2013-03-31 06:19:00,
2013-03-31 02:24:00,29.0,21.8,29.99,North,-999,-999.0,-999.0,65,-99.99,,,-99.99,Homeseer,2013-03-31 06:24:00,
2013-03-31 02:29:00,29.0,22.0,29.99,North,-999,-999.0,-999.0,66,-99.99,,,-99.99,Homeseer,2013-03-31 06:29:00,
2013-03-31 02:34:00,29.0,22.0,29.98,North,-999,-999.0,-999.0,66,-99.99,,,-99.99,Homeseer,2013-03-31 06:34:00,
2013-03-31 02:39:00,28.9,21.9,29.98,North,-999,-999.0,-999.0,66,-99.99,,,-99.99,Homeseer,2013-03-31 06:39:00,
2013-03-31 02:44:00,28.8,22.5,29.98,North,-999,-999.0,-999.0,69,-99.99,,,-99.99,Homeseer,2013-03-31 06:44:00,
2013-03-31 02:49:00,28.7,22.2,29.99,North,-999,-999.0,-999.0,68,-99.99,,,-99.99,Homeseer,2013-03-31 06:49:00,
2013-03-31 02:54:00,28.7,22.4,29.99,North,-999,-999.0,-999.0,69,-99.99,,,-99.99,Homeseer,2013-03-31 06:54:00,
2013-03-31 02:59:00,28.6,22.4,29.99,North,-999,-999.0,-999.0,69,-99.99,,,-99.99,Homeseer,2013-03-31 06:59:00,
2013-03-31 03:04:00,28.4,22.2,29.99,North,-999,-999.0,-999.0,69,-99.99,,,-99.99,Homeseer,2013-03-31 07:04:00,
2013-03-31 03:09:00,28.4,22.2,29.99,North,-999,-999.0,-999.0,69,-99.99,,,-99.99,Homeseer,2013-03-31 07:09:00,
2013-03-31 03:14:00,28.3,22.1,29.99,North,-999,-999.0,-999.0,69,-99.99,,,-99.99,Homeseer,2013-03-31 07:14:00,
2013-03-31 03:19:00,28.1,22.3,29.99,North,-999,-999.0,-999.0,71,-99.99,,,-99.99,Homeseer,2013-03-31 07:19:00,
2013-03-31 03:24:00,28.0,22.5,29.99,North,-999,-999.0,-999.0,72,-99.99,,,-99.99,Homeseer,2013-03-31 07:24:00,
2013-03-31 03:29:00,28.0,22.0,29.99,North,-999,-999.0,-999.0,70,-99.99,,,-99.99,Homeseer,2013-03-31 07:29:00,
2013-03-31 03:34:00,28.0,22.5,29.99,North,-999,-999.0,-999.0,72,-99.99,,,-99.99,Homeseer,2013-03-31 07:34:00,
2013-03-31 03:39:00,27.8,23.2,29.99,North,-999,-999.0,-999.0,76,-99.99,,,-99.99,Homeseer,2013-03-31 07:39:00,
2013-03-31 03:44:00,27.9,23.1,29.99,North,-999,-999.0,-999.0,75,-99.99,,,-99.99,Homeseer,2013-03-31 07:44:00,
2013-03-31 03:49:00,27.9,23.3,29.99,North,-999,-999.0,-999.0,76,-99.99,,,-99.99,Homeseer,2013-03-31 07:49:00,
2013-03-31 03:54:00,27.8,23.2,29.99,North,-999,-999.0,-999.0,76,-99.99,,,-99.99,Homeseer,2013-03-31 07:54:00,
2013-03-31 03:59:00,27.9,23.1,29.99,North,-999,-999.0,-999.0,75,-99.99,,,-99.99,Homeseer,2013-03-31 07:59:00,
2013-03-31 04:04:00,28.0,22.9,29.99,North,-999,-999.0,-999.0,74,-99.99,,,-99.99,Homeseer,2013-03-31 08:04:00,
2013-03-31 04:09:00,27.9,22.8,29.99,North,-999,-999.0,-999.0,74,-99.99,,,-99.99,Homeseer,2013-03-31 08:09:00,
2013-03-31 04:14:00,27.9,23.1,29.99,North,-999,-999.0,-999.0,75,-99.99,,,-99.99,Homeseer,2013-03-31 08:14:00,
2013-03-31 04:19:00,27.8,22.7,29.99,North,-999,-999.0,-999.0,74,-99.99,,,-99.99,Homeseer,2013-03-31 08:19:00,
2013-03-31 04:24:00,27.6,23.0,29.99,North,-999,-999.0,-999.0,76,-99.99,,,-99.99,Homeseer,2013-03-31 08:24:00,
2013-03-31 04:29:00,27.5,22.7,29.99,North,-999,-999.0,-999.0,75,-99.99,,,-99.99,Homeseer,2013-03-31 08:29:00,
2013-03-31 04:34:00,27.4,22.6,29.99,North,-999,-999.0,-999.0,75,-99.99,,,-99.99,Homeseer,2013-03-31 08:34:00,
2013-03-31 04:39:00,27.5,22.4,29.99,North,-999,-999.0,-999.0,74,-99.99,,,-99.99,Homeseer,2013-03-31 08:39:00,
2013-03-31 04:44:00,27.5,22.7,29.99,North,-999,-999.0,-999.0,75,-99.99,,,-99.99,Homeseer,2013-03-31 08:44:00,
2013-03-31 04:49:00,27.4,22.8,29.99,North,-999,-999.0,-999.0,76,-99.99,,,-99.99,Homeseer,2013-03-31 08:49:00,
2013-03-31 04:54:00,27.2,22.4,29.99,North,-999,-999.0,-999.0,75,-99.99,,,-99.99,Homeseer,2013-03-31 08:54:00,
2013-03-31 04:59:00,27.1,22.5,29.99,North,-999,-999.0,-999.0,76,-99.99,,,-99.99,Homeseer,2013-03-31 08:59:00,
2013-03-31 05:04:00,27.1,22.3,29.99,North,-999,-999.0,-999.0,75,-99.99,,,-99.99,Homeseer,2013-03-31 09:04:00,
2013-03-31 05:09:00,26.9,22.5,29.99,North,-999,-999.0,-999.0,77,-99.99,,,-99.99,Homeseer,2013-03-31 09:09:00,
2013-03-31 05:14:00,26.9,22.3,29.99,North,-999,-999.0,-999.0,76,-99.99,,,-99.99,Homeseer,2013-03-31 09:14:00,
2013-03-31 05:19:00,26.9,22.1,29.99,North,-999,-999.0,-999.0,75,-99.99,,,-99.99,Homeseer,2013-03-31 09:19:00,
2013-03-31 05:24:00,26.6,22.2,29.99,North,-999,-999.0,-999.0,77,-99.99,,,-99.99,Homeseer,2013-03-31 09:24:00,
2013-03-31 05:29:00,26.5,22.1,29.99,North,-999,-999.0,-999.0,77,-99.99,,,-99.99,Homeseer,2013-03-31 09:29:00,
2013-03-31 05:34:00,26.6,22.0,29.99,North,-999,-999.0,-999.0,76,-99.99,,,-99.99,Homeseer,2013-03-31 09:34:00,
2013-03-31 05:40:00,26.5,21.9,29.99,North,-999,-999.0,-999.0,76,-99.99,,,-99.99,Homeseer,2013-03-31 09:40:00,
2013-03-31 05:45:00,26.5,21.9,29.99,North,-999,-999.0,-999.0,76,-99.99,,,-99.99,Homeseer,2013-03-31 09:45:00,
2013-03-31 05:50:00,26.5,22.1,29.99,North,-999,-999.0,-999.0,77,-99.99,,,-99.99,Homeseer,2013-03-31 09:50:00,
2013-03-31 05:55:00,26.4,22.0,29.99,North,-999,-999.0,-999.0,77,-99.99,,,-99.99,Homeseer,2013-03-31 09:55:00,
2013-03-31 06:00:00,26.3,22.2,29.99,North,-999,-999.0,-999.0,78,-99.99,,,-99.99,Homeseer,2013-03-31 10:00:00,
2013-03-31 06:05:00,25.8,22.5,29.99,North,-999,-999.0,-999.0,82,-99.99,,,-99.99,Homeseer,2013-03-31 10:05:00,
2013-03-31 06:10:00,26.0,22.3,29.98,North,-999,-999.0,-999.0,80,-99.99,,,-99.99,Homeseer,2013-03-31 10:10:00,
2013-03-31 06:15:00,26.0,22.1,29.98,North,-999,-999.0,-999.0,79,-99.99,,,-99.99,Homeseer,2013-03-31 10:15:00,
2013-03-31 06:20:00,26.0,22.1,29.99,North,-999,-999.0,-999.0,79,-99.99,,,-99.99,Homeseer,2013-03-31 10:20:00,
2013-03-31 06:25:00,25.8,22.1,29.98,North,-999,-999.0,-999.0,80,-99.99,,,-99.99,Homeseer,2013-03-31 10:25:00,
2013-03-31 06:30:00,25.6,22.1,29.98,North,-999,-999.0,-999.0,81,-99.99,,,-99.99,Homeseer,2013-03-31 10:30:00,
2013-03-31 06:35:00,25.7,22.0,29.99,North,-999,-999.0,-999.0,80,-99.99,,,-99.99,Homeseer,2013-03-31 10:35:00,
2013-03-31 06:40:00,25.8,21.9,29.99,North,-999,-999.0,-999.0,79,-99.99,,,-99.99,Homeseer,2013-03-31 10:40:00,
2013-03-31 06:45:00,26.0,22.1,29.99,North,-999,-999.0,-999.0,79,-99.99,,,-99.99,Homeseer,2013-03-31 10:45:00,
2013-03-31 06:50:00,26.1,22.8,29.99,North,-999,-999.0,-999.0,82,-99.99,,,-99.99,Homeseer,2013-03-31 10:50:00,
2013-03-31 06:55:00,25.8,22.7,29.99,North,-999,-999.0,-999.0,83,-99.99,,,-99.99,Homeseer,2013-03-31 10:55:00,
2013-03-31 07:00:00,26.0,22.9,30.00,North,-999,-999.0,-999.0,83,-99.99,,,-99.99,Homeseer,2013-03-31 11:00:00,
2013-03-31 07:05:00,26.2,22.9,30.00,North,-999,-999.0,-999.0,82,-99.99,,,-99.99,Homeseer,2013-03-31 11:05:00,
2013-03-31 07:10:00,26.5,23.0,30.00,North,-999,-999.0,-999.0,81,-99.99,,,-99.99,Homeseer,2013-03-31 11:10:00,
2013-03-31 07:15:00,26.8,23.1,30.00,North,-999,-999.0,-999.0,80,-99.99,,,-99.99,Homeseer,2013-03-31 11:15:00,
2013-03-31 07:20:00,27.1,23.1,30.00,North,-999,-999.0,-999.0,79,-99.99,,,-99.99,Homeseer,2013-03-31 11:20:00,
2013-03-31 07:25:00,27.4,23.6,30.01,North,-999,-999.0,-999.0,80,-99.99,,,-99.99,Homeseer,2013-03-31 11:25:00,
2013-03-31 07:30:00,27.9,24.1,30.01,North,-999,-999.0,-999.0,80,-99.99,,,-99.99,Homeseer,2013-03-31 11:30:00,
2013-03-31 07:35:00,28.2,24.4,30.01,North,-999,-999.0,-999.0,80,-99.99,,,-99.99,Homeseer,2013-03-31 11:35:00,
2013-03-31 07:40:00,28.7,24.7,30.01,North,-999,-999.0,-999.0,79,-99.99,,,-99.99,Homeseer,2013-03-31 11:40:00,
2013-03-31 07:45:00,29.2,25.2,30.00,North,-999,-999.0,-999.0,79,-99.99,,,-99.99,Homeseer,2013-03-31 11:45:00,
2013-03-31 07:50:00,30.1,25.8,30.00,North,-999,-999.0,-999.0,78,-99.99,,,-99.99,Homeseer,2013-03-31 11:50:00,
2013-03-31 07:55:00,31.1,26.6,30.00,North,-999,-999.0,-999.0,77,-99.99,,,-99.99,Homeseer,2013-03-31 11:55:00,
2013-03-31 08:00:00,31.7,26.9,30.00,North,-999,-999.0,-999.0,76,-99.99,,,-99.99,Homeseer,2013-03-31 12:00:00,
2013-03-31 08:05:00,32.2,27.4,30.00,North,-999,-999.0,-999.0,76,-99.99,,,-99.99,Homeseer,2013-03-31 12:05:00,
2013-03-31 08:10:00,33.3,28.5,30.00,North,-999,-999.0,-999.0,76,-99.99,,,-99.99,Homeseer,2013-03-31 12:10:00,
2013-03-31 08:15:00,34.0,28.5,29.99,North,-999,-999.0,-999.0,73,-99.99,,,-99.99,Homeseer,2013-03-31 12:15:00,
2013-03-31 08:20:00,34.5,29.0,29.99,North,-999,-999.0,-999.0,73,-99.99,,,-99.99,Homeseer,2013-03-31 12:20:00,
2013-03-31 08:25:00,34.5,26.4,29.98,North,-999,-999.0,-999.0,63,-99.99,,,-99.99,Homeseer,2013-03-31 12:25:00,
2013-03-31 08:30:00,35.5,27.4,29.99,North,-999,-999.0,-999.0,63,-99.99,,,-99.99,Homeseer,2013-03-31 12:30:00,
2013-03-31 08:35:00,36.8,28.0,29.98,North,-999,-999.0,-999.0,61,-99.99,,,-99.99,Homeseer,2013-03-31 12:35:00,
2013-03-31 08:40:00,37.3,27.0,29.98,North,-999,-999.0,-999.0,56,-99.99,,,-99.99,Homeseer,2013-03-31 12:40:00,
2013-03-31 08:45:00,38.2,27.6,29.98,North,-999,-999.0,-999.0,55,-99.99,,,-99.99,Homeseer,2013-03-31 12:45:00,
2013-03-31 08:50:00,39.4,28.0,29.98,North,-999,-999.0,-999.0,53,-99.99,,,-99.99,Homeseer,2013-03-31 12:50:00,
2013-03-31 08:55:00,40.2,28.8,29.97,North,-999,-999.0,-999.0,53,-99.99,,,-99.99,Homeseer,2013-03-31 12:55:00,
2013-03-31 09:00:00,41.3,30.1,29.97,North,-999,-999.0,-999.0,54,-99.99,,,-99.99,Homeseer,2013-03-31 13:00:00,
2013-03-31 09:05:00,42.3,30.0,29.97,North,-999,-999.0,-999.0,51,-99.99,,,-99.99,Homeseer,2013-03-31 13:05:00,
2013-03-31 09:10:00,43.0,30.3,29.97,North,-999,-999.0,-999.0,50,-99.99,,,-99.99,Homeseer,2013-03-31 13:10:00,
2013-03-31 09:15:00,43.6,29.4,29.97,North,-999,-999.0,-999.0,46,-99.99,,,-99.99,Homeseer,2013-03-31 13:15:00,
2013-03-31 09:20:00,44.8,30.9,29.97,North,-999,-999.0,-999.0,47,-99.99,,,-99.99,Homeseer,2013-03-31 13:20:00,
2013-03-31 09:25:00,45.4,31.1,29.96,North,-999,-999.0,-999.0,46,-99.99,,,-99.99,Homeseer,2013-03-31 13:25:00,
2013-03-31 09:30:00,45.9,31.9,29.97,North,-999,-999.0,-999.0,47,-99.99,,,-99.99,Homeseer,2013-03-31 13:30:00,
2013-03-31 09:35:00,46.8,32.3,29.97,North,-999,-999.0,-999.0,46,-99.99,,,-99.99,Homeseer,2013-03-31 13:35:00,
2013-03-31 09:40:00,47.4,32.5,29.97,North,-999,-999.0,-999.0,45,-99.99,,,-99.99,Homeseer,2013-03-31 13:40:00,
2013-03-31 09:45:00,48.4,31.3,29.96,North,-999,-999.0,-999.0,40,-99.99,,,-99.99,Homeseer,2013-03-31 13:45:00,
2013-03-31 09:50:00,48.8,30.7,29.96,North,-999,-999.0,-999.0,38,-99.99,,,-99.99,Homeseer,2013-03-31 13:50:00,
2013-03-31 09:57:00,49.0,31.4,29.97,North,-999,-999.0,-999.0,39,-99.99,,,-99.99,Homeseer,2013-03-31 13:57:00,
2013-03-31 10:03:00,49.2,31.1,29.96,North,-999,-999.0,-999.0,38,-99.99,,,-99.99,Homeseer,2013-03-31 14:03:00,
2013-03-31 10:08:00,49.8,30.7,29.95,North,-999,-999.0,-999.0,36,-99.99,,,-99.99,Homeseer,2013-03-31 14:08:00,
2013-03-31 10:13:00,50.4,31.7,29.95,North,-999,-999.0,-999.0,37,-99.99,,,-99.99,Homeseer,2013-03-31 14:13:00,
2013-03-31 10:18:00,50.9,30.6,29.95,North,-999,-999.0,-999.0,34,-99.99,,,-99.99,Homeseer,2013-03-31 14:18:00,
2013-03-31 10:23:00,51.2,30.4,29.95,North,-999,-999.0,-999.0,33,-99.99,,,-99.99,Homeseer,2013-03-31 14:23:00,
2013-03-31 10:28:00,52.0,31.1,29.95,North,-999,-999.0,-999.0,33,-99.99,,,-99.99,Homeseer,2013-03-31 14:28:00,
2013-03-31 10:33:00,52.6,31.6,29.95,North,-999,-999.0,-999.0,33,-99.99,,,-99.99,Homeseer,2013-03-31 14:33:00,
2013-03-31 10:38:00,53.1,30.9,29.95,North,-999,-999.0,-999.0,31,-99.99,,,-99.99,Homeseer,2013-03-31 14:38:00,
2013-03-31 10:43:00,53.9,32.7,29.95,North,-999,-999.0,-999.0,33,-99.99,,,-99.99,Homeseer,2013-03-31 14:43:00,
2013-03-31 10:48:00,54.5,32.7,29.94,North,-999,-999.0,-999.0,32,-99.99,,,-99.99,Homeseer,2013-03-31 14:48:00,
2013-03-31 10:53:00,54.8,31.8,29.94,North,-999,-999.0,-999.0,30,-99.99,,,-99.99,Homeseer,2013-03-31 14:53:00,
2013-03-31 10:58:00,55.3,32.2,29.93,North,-999,-999.0,-999.0,30,-99.99,,,-99.99,Homeseer,2013-03-31 14:58:00,
2013-03-31 11:04:00,56.2,31.8,29.94,North,-999,-999.0,-999.0,28,-99.99,,,-99.99,Homeseer,2013-03-31 15:04:00,
2013-03-31 11:09:00,56.7,32.8,29.94,North,-999,-999.0,-999.0,29,-99.99,,,-99.99,Homeseer,2013-03-31 15:09:00,
2013-03-31 11:14:00,57.0,32.4,29.94,North,-999,-999.0,-999.0,28,-99.99,,,-99.99,Homeseer,2013-03-31 15:14:00,
2013-03-31 11:19:00,56.6,32.1,29.93,North,-999,-999.0,-999.0,28,-99.99,,,-99.99,Homeseer,2013-03-31 15:19:00,
2013-03-31 11:24:00,57.4,33.4,29.93,North,-999,-999.0,-999.0,29,-99.99,,,-99.99,Homeseer,2013-03-31 15:24:00,
2013-03-31 11:29:00,57.7,32.4,29.93,North,-999,-999.0,-999.0,27,-99.99,,,-99.99,Homeseer,2013-03-31 15:29:00,
2013-03-31 11:35:00,57.7,33.0,29.92,North,-999,-999.0,-999.0,28,-99.99,,,-99.99,Homeseer,2013-03-31 15:35:00,
2013-03-31 11:40:00,57.8,33.7,29.92,North,-999,-999.0,-999.0,29,-99.99,,,-99.99,Homeseer,2013-03-31 15:40:00,
2013-03-31 11:45:00,58.8,33.3,29.91,North,-999,-999.0,-999.0,27,-99.99,,,-99.99,Homeseer,2013-03-31 15:45:00,
2013-03-31 11:50:00,59.2,33.0,29.91,North,-999,-999.0,-999.0,26,-99.99,,,-99.99,Homeseer,2013-03-31 15:50:00,
2013-03-31 11:55:00,59.3,33.7,29.91,North,-999,-999.0,-999.0,27,-99.99,,,-99.99,Homeseer,2013-03-31 15:55:00,
2013-03-31 12:00:00,59.4,34.4,29.90,North,-999,-999.0,-999.0,28,-99.99,,,-99.99,Homeseer,2013-03-31 16:00:00,
2013-03-31 12:05:00,60.0,33.6,29.90,North,-999,-999.0,-999.0,26,-99.99,,,-99.99,Homeseer,2013-03-31 16:05:00,
2013-03-31 12:10:00,60.3,33.2,29.90,North,-999,-999.0,-999.0,25,-99.99,,,-99.99,Homeseer,2013-03-31 16:10:00,
2013-03-31 12:15:00,60.3,33.2,29.89,North,-999,-999.0,-999.0,25,-99.99,,,-99.99,Homeseer,2013-03-31 16:15:00,
2013-03-31 12:20:00,60.5,32.6,29.89,North,-999,-999.0,-999.0,24,-99.99,,,-99.99,Homeseer,2013-03-31 16:20:00,
2013-03-31 12:25:00,61.0,33.8,29.88,North,-999,-999.0,-999.0,25,-99.99,,,-99.99,Homeseer,2013-03-31 16:25:00,
2013-03-31 12:30:00,60.7,32.8,29.88,North,-999,-999.0,-999.0,24,-99.99,,,-99.99,Homeseer,2013-03-31 16:30:00,
2013-03-31 12:35:00,61.1,33.1,29.87,North,-999,-999.0,-999.0,24,-99.99,,,-99.99,Homeseer,2013-03-31 16:35:00,
2013-03-31 12:40:00,61.0,33.0,29.87,North,-999,-999.0,-999.0,24,-99.99,,,-99.99,Homeseer,2013-03-31 16:40:00,
2013-03-31 12:45:00,61.5,32.7,29.86,North,-999,-999.0,-999.0,23,-99.99,,,-99.99,Homeseer,2013-03-31 16:45:00,
2013-03-31 12:50:00,62.1,32.4,29.86,North,-999,-999.0,-999.0,22,-99.99,,,-99.99,Homeseer,2013-03-31 16:50:00,
2013-03-31 12:55:00,62.4,33.4,29.85,North,-999,-999.0,-999.0,23,-99.99,,,-99.99,Homeseer,2013-03-31 16:55:00,
2013-03-31 13:00:00,62.4,32.6,29.85,North,-999,-999.0,-999.0,22,-99.99,,,-99.99,Homeseer,2013-03-31 17:00:00,
2013-03-31 13:05:00,62.4,32.6,29.85,North,-999,-999.0,-999.0,22,-99.99,,,-99.99,Homeseer,2013-03-31 17:05:00,
2013-03-31 13:10:00,62.6,32.8,29.84,North,-999,-999.0,-999.0,22,-99.99,,,-99.99,Homeseer,2013-03-31 17:10:00,
2013-03-31 13:17:00,61.8,32.1,29.85,North,-999,-999.0,-999.0,22,-99.99,,,-99.99,Homeseer,2013-03-31 17:17:00,
2013-03-31 13:23:00,61.5,31.9,29.84,North,-999,-999.0,-999.0,22,-99.99,,,-99.99,Homeseer,2013-03-31 17:23:00,
2013-03-31 13:28:00,60.8,31.3,29.83,North,-999,-999.0,-999.0,22,-99.99,,,-99.99,Homeseer,2013-03-31 17:28:00,
2013-03-31 13:33:00,61.4,31.8,29.83,North,-999,-999.0,-999.0,22,-99.99,,,-99.99,Homeseer,2013-03-31 17:33:00,
2013-03-31 13:39:00,61.4,31.8,29.83,North,-999,-999.0,-999.0,22,-99.99,,,-99.99,Homeseer,2013-03-31 17:39:00,
2013-03-31 13:44:00,60.5,32.6,29.82,North,-999,-999.0,-999.0,24,-99.99,,,-99.99,Homeseer,2013-03-31 17:44:00,
2013-03-31 13:50:00,60.2,31.6,29.82,North,-999,-999.0,-999.0,23,-99.99,,,-99.99,Homeseer,2013-03-31 17:50:00,
2013-03-31 13:55:00,59.9,31.4,29.81,North,-999,-999.0,-999.0,23,-99.99,,,-99.99,Homeseer,2013-03-31 17:55:00,
2013-03-31 14:00:00,60.2,33.1,29.81,North,-999,-999.0,-999.0,25,-99.99,,,-99.99,Homeseer,2013-03-31 18:00:00,
2013-03-31 14:05:00,60.6,31.2,29.80,North,-999,-999.0,-999.0,22,-99.99,,,-99.99,Homeseer,2013-03-31 18:05:00,
2013-03-31 14:12:00,60.5,32.6,29.79,North,-999,-999.0,-999.0,24,-99.99,,,-99.99,Homeseer,2013-03-31 18:12:00,
2013-03-31 14:17:00,60.7,32.8,29.79,North,-999,-999.0,-999.0,24,-99.99,,,-99.99,Homeseer,2013-03-31 18:17:00,
2013-03-31 14:22:00,60.7,32.0,29.79,North,-999,-999.0,-999.0,23,-99.99,,,-99.99,Homeseer,2013-03-31 18:22:00,
2013-03-31 14:28:00,60.5,31.9,29.79,North,-999,-999.0,-999.0,23,-99.99,,,-99.99,Homeseer,2013-03-31 18:28:00,
2013-03-31 14:33:00,60.4,31.8,29.79,North,-999,-999.0,-999.0,23,-99.99,,,-99.99,Homeseer,2013-03-31 18:33:00,
2013-03-31 14:38:00,59.8,32.8,29.79,North,-999,-999.0,-999.0,25,-99.99,,,-99.99,Homeseer,2013-03-31 18:38:00,
2013-03-31 14:43:00,59.8,32.0,29.78,North,-999,-999.0,-999.0,24,-99.99,,,-99.99,Homeseer,2013-03-31 18:43:00,
2013-03-31 14:48:00,59.9,31.4,29.78,North,-999,-999.0,-999.0,23,-99.99,,,-99.99,Homeseer,2013-03-31 18:48:00,
2013-03-31 14:53:00,59.7,32.0,29.78,North,-999,-999.0,-999.0,24,-99.99,,,-99.99,Homeseer,2013-03-31 18:53:00,
2013-03-31 14:58:00,59.9,32.8,29.77,North,-999,-999.0,-999.0,25,-99.99,,,-99.99,Homeseer,2013-03-31 18:58:00,
2013-03-31 15:03:00,59.7,32.7,29.77,North,-999,-999.0,-999.0,25,-99.99,,,-99.99,Homeseer,2013-03-31 19:03:00,
2013-03-31 15:09:00,59.7,32.7,29.76,North,-999,-999.0,-999.0,25,-99.99,,,-99.99,Homeseer,2013-03-31 19:09:00,
2013-03-31 15:14:00,59.4,33.1,29.76,North,-999,-999.0,-999.0,26,-99.99,,,-99.99,Homeseer,2013-03-31 19:14:00,
2013-03-31 15:19:00,59.3,33.0,29.76,North,-999,-999.0,-999.0,26,-99.99,,,-99.99,Homeseer,2013-03-31 19:19:00,
2013-03-31 15:24:00,59.2,33.0,29.75,North,-999,-999.0,-999.0,26,-99.99,,,-99.99,Homeseer,2013-03-31 19:24:00,
2013-03-31 15:30:00,59.2,33.6,29.75,North,-999,-999.0,-999.0,27,-99.99,,,-99.99,Homeseer,2013-03-31 19:30:00,
2013-03-31 15:35:00,59.3,33.0,29.75,North,-999,-999.0,-999.0,26,-99.99,,,-99.99,Homeseer,2013-03-31 19:35:00,
2013-03-31 15:40:00,59.3,33.7,29.75,North,-999,-999.0,-999.0,27,-99.99,,,-99.99,Homeseer,2013-03-31 19:40:00,
2013-03-31 15:47:00,58.9,32.7,29.75,North,-999,-999.0,-999.0,26,-99.99,,,-99.99,Homeseer,2013-03-31 19:47:00,
2013-03-31 15:52:00,58.5,32.4,29.75,North,-999,-999.0,-999.0,26,-99.99,,,-99.99,Homeseer,2013-03-31 19:52:00,
2013-03-31 15:58:00,58.8,33.3,29.74,North,-999,-999.0,-999.0,27,-99.99,,,-99.99,Homeseer,2013-03-31 19:58:00,
2013-03-31 16:03:00,58.6,33.1,29.74,North,-999,-999.0,-999.0,27,-99.99,,,-99.99,Homeseer,2013-03-31 20:03:00,
2013-03-31 16:08:00,58.6,33.8,29.74,North,-999,-999.0,-999.0,28,-99.99,,,-99.99,Homeseer,2013-03-31 20:08:00,
2013-03-31 16:13:00,57.7,33.0,29.74,North,-999,-999.0,-999.0,28,-99.99,,,-99.99,Homeseer,2013-03-31 20:13:00,
2013-03-31 16:18:00,57.6,32.3,29.75,North,-999,-999.0,-999.0,27,-99.99,,,-99.99,Homeseer,2013-03-31 20:18:00,
2013-03-31 16:24:00,57.5,32.8,29.74,North,-999,-999.0,-999.0,28,-99.99,,,-99.99,Homeseer,2013-03-31 20:24:00,
2013-03-31 16:29:00,57.1,32.5,29.73,North,-999,-999.0,-999.0,28,-99.99,,,-99.99,Homeseer,2013-03-31 20:29:00,
2013-03-31 16:34:00,57.1,32.5,29.74,North,-999,-999.0,-999.0,28,-99.99,,,-99.99,Homeseer,2013-03-31 20:34:00,
2013-03-31 16:39:00,57.2,32.6,29.73,North,-999,-999.0,-999.0,28,-99.99,,,-99.99,Homeseer,2013-03-31 20:39:00,
2013-03-31 16:44:00,57.2,32.0,29.73,North,-999,-999.0,-999.0,27,-99.99,,,-99.99,Homeseer,2013-03-31 20:44:00,
2013-03-31 16:49:00,57.5,32.8,29.73,North,-999,-999.0,-999.0,28,-99.99,,,-99.99,Homeseer,2013-03-31 20:49:00,
2013-03-31 16:54:00,57.2,32.0,29.73,North,-999,-999.0,-999.0,27,-99.99,,,-99.99,Homeseer,2013-03-31 20:54:00,
2013-03-31 16:59:00,57.1,31.9,29.73,North,-999,-999.0,-999.0,27,-99.99,,,-99.99,Homeseer,2013-03-31 20:59:00,
2013-03-31 17:05:00,56.9,31.7,29.73,North,-999,-999.0,-999.0,27,-99.99,,,-99.99,Homeseer,2013-03-31 21:05:00,
2013-03-31 17:10:00,56.6,31.4,29.73,North,-999,-999.0,-999.0,27,-99.99,,,-99.99,Homeseer,2013-03-31 21:10:00,
2013-03-31 17:15:00,56.2,31.1,29.73,North,-999,-999.0,-999.0,27,-99.99,,,-99.99,Homeseer,2013-03-31 21:15:00,
2013-03-31 17:20:00,56.2,31.1,29.73,North,-999,-999.0,-999.0,27,-99.99,,,-99.99,Homeseer,2013-03-31 21:20:00,
2013-03-31 17:25:00,56.2,31.1,29.72,North,-999,-999.0,-999.0,27,-99.99,,,-99.99,Homeseer,2013-03-31 21:25:00,
2013-03-31 17:30:00,56.0,30.9,29.71,North,-999,-999.0,-999.0,27,-99.99,,,-99.99,Homeseer,2013-03-31 21:30:00,
2013-03-31 17:35:00,56.2,31.1,29.72,North,-999,-999.0,-999.0,27,-99.99,,,-99.99,Homeseer,2013-03-31 21:35:00,
2013-03-31 17:40:00,56.0,32.2,29.72,North,-999,-999.0,-999.0,29,-99.99,,,-99.99,Homeseer,2013-03-31 21:40:00,
2013-03-31 17:45:00,55.9,32.1,29.72,North,-999,-999.0,-999.0,29,-99.99,,,-99.99,Homeseer,2013-03-31 21:45:00,
2013-03-31 17:50:00,55.2,31.5,29.72,North,-999,-999.0,-999.0,29,-99.99,,,-99.99,Homeseer,2013-03-31 21:50:00,
2013-03-31 17:55:00,54.6,31.0,29.71,North,-999,-999.0,-999.0,29,-99.99,,,-99.99,Homeseer,2013-03-31 21:55:00,
2013-03-31 18:00:00,54.5,30.9,29.71,North,-999,-999.0,-999.0,29,-99.99,,,-99.99,Homeseer,2013-03-31 22:00:00,
2013-03-31 18:05:00,54.3,32.5,29.72,North,-999,-999.0,-999.0,32,-99.99,,,-99.99,Homeseer,2013-03-31 22:05:00,
2013-03-31 18:10:00,53.5,31.8,29.71,North,-999,-999.0,-999.0,32,-99.99,,,-99.99,Homeseer,2013-03-31 22:10:00,
2013-03-31 18:15:00,53.2,31.6,29.71,North,-999,-999.0,-999.0,32,-99.99,,,-99.99,Homeseer,2013-03-31 22:15:00,
2013-03-31 18:20:00,53.5,32.4,29.72,North,-999,-999.0,-999.0,33,-99.99,,,-99.99,Homeseer,2013-03-31 22:20:00,
2013-03-31 18:25:00,53.0,33.5,29.71,North,-999,-999.0,-999.0,36,-99.99,,,-99.99,Homeseer,2013-03-31 22:25:00,
2013-03-31 18:30:00,52.6,33.6,29.72,North,-999,-999.0,-999.0,37,-99.99,,,-99.99,Homeseer,2013-03-31 22:30:00,
2013-03-31 18:35:00,52.4,34.8,29.72,North,-999,-999.0,-999.0,40,-99.99,,,-99.99,Homeseer,2013-03-31 22:35:00,
2013-03-31 18:40:00,52.4,34.8,29.71,North,-999,-999.0,-999.0,40,-99.99,,,-99.99,Homeseer,2013-03-31 22:40:00,
2013-03-31 18:45:00,52.4,35.3,29.71,North,-999,-999.0,-999.0,41,-99.99,,,-99.99,Homeseer,2013-03-31 22:45:00,
2013-03-31 18:50:00,51.8,35.2,29.72,North,-999,-999.0,-999.0,42,-99.99,,,-99.99,Homeseer,2013-03-31 22:50:00,
2013-03-31 18:55:00,51.6,35.4,29.71,North,-999,-999.0,-999.0,43,-99.99,,,-99.99,Homeseer,2013-03-31 22:55:00,
2013-03-31 19:00:00,51.6,35.4,29.71,North,-999,-999.0,-999.0,43,-99.99,,,-99.99,Homeseer,2013-03-31 23:00:00,
2013-03-31 19:05:00,51.5,35.8,29.71,North,-999,-999.0,-999.0,44,-99.99,,,-99.99,Homeseer,2013-03-31 23:05:00,
2013-03-31 19:10:00,51.3,36.0,29.71,North,-999,-999.0,-999.0,45,-99.99,,,-99.99,Homeseer,2013-03-31 23:10:00,
2013-03-31 19:15:00,51.0,36.1,29.71,North,-999,-999.0,-999.0,46,-99.99,,,-99.99,Homeseer,2013-03-31 23:15:00,
2013-03-31 19:22:00,51.3,36.4,29.71,North,-999,-999.0,-999.0,46,-99.99,,,-99.99,Homeseer,2013-03-31 23:22:00,
2013-03-31 19:27:00,51.0,36.5,29.71,North,-999,-999.0,-999.0,47,-99.99,,,-99.99,Homeseer,2013-03-31 23:27:00,
2013-03-31 19:32:00,51.0,36.5,29.71,North,-999,-999.0,-999.0,47,-99.99,,,-99.99,Homeseer,2013-03-31 23:32:00,
2013-03-31 19:37:00,50.9,36.4,29.71,North,-999,-999.0,-999.0,47,-99.99,,,-99.99,Homeseer,2013-03-31 23:37:00,
2013-03-31 19:43:00,51.0,36.5,29.70,North,-999,-999.0,-999.0,47,-99.99,,,-99.99,Homeseer,2013-03-31 23:43:00,
2013-03-31 19:48:00,50.9,36.4,29.70,North,-999,-999.0,-999.0,47,-99.99,,,-99.99,Homeseer,2013-03-31 23:48:00,
2013-03-31 19:54:00,50.6,37.3,29.69,North,-999,-999.0,-999.0,50,-99.99,,,-99.99,Homeseer,2013-03-31 23:54:00,
2013-03-31 19:59:00,50.4,37.5,29.70,North,-999,-999.0,-999.0,51,-99.99,,,-99.99,Homeseer,2013-03-31 23:59:00,
2013-03-31 20:04:00,50.2,38.3,29.70,North,-999,-999.0,-999.0,54,-99.99,,,-99.99,Homeseer,2013-04-01 00:04:00,
2013-03-31 20:09:00,49.8,38.3,29.70,North,-999,-999.0,-999.0,55,-99.99,,,-99.99,Homeseer,2013-04-01 00:09:00,
2013-03-31 20:14:00,49.6,38.8,29.70,North,-999,-999.0,-999.0,57,-99.99,,,-99.99,Homeseer,2013-04-01 00:14:00,
2013-03-31 20:19:00,49.1,38.6,29.70,North,-999,-999.0,-999.0,58,-99.99,,,-99.99,Homeseer,2013-04-01 00:19:00,
2013-03-31 20:24:00,48.7,39.5,29.69,North,-999,-999.0,-999.0,62,-99.99,,,-99.99,Homeseer,2013-04-01 00:24:00,
2013-03-31 20:29:00,48.2,39.9,29.69,North,-999,-999.0,-999.0,65,-99.99,,,-99.99,Homeseer,2013-04-01 00:29:00,
2013-03-31 20:34:00,48.0,40.3,29.69,North,-999,-999.0,-999.0,67,-99.99,,,-99.99,Homeseer,2013-04-01 00:34:00,
2013-03-31 20:39:00,47.4,41.3,29.69,North,-999,-999.0,-999.0,73,-99.99,,,-99.99,Homeseer,2013-04-01 00:39:00,
2013-03-31 20:45:00,46.6,41.3,29.68,North,-999,-999.0,-999.0,76,-99.99,,,-99.99,Homeseer,2013-04-01 00:45:00,
2013-03-31 20:50:00,46.3,41.0,29.68,North,-999,-999.0,-999.0,76,-99.99,,,-99.99,Homeseer,2013-04-01 00:50:00,
2013-03-31 20:55:00,46.3,41.0,29.68,North,-999,-999.0,-999.0,76,-99.99,,,-99.99,Homeseer,2013-04-01 00:55:00,
2013-03-31 21:00:00,45.9,40.9,29.67,North,-999,-999.0,-999.0,77,-99.99,,,-99.99,Homeseer,2013-04-01 01:00:00,
2013-03-31 21:05:00,45.9,41.8,29.67,North,-999,-999.0,-999.0,81,-99.99,,,-99.99,Homeseer,2013-04-01 01:05:00,
2013-03-31 21:10:00,45.8,42.2,29.66,North,-999,-999.0,-999.0,83,-99.99,,,-99.99,Homeseer,2013-04-01 01:10:00,
2013-03-31 21:16:00,45.5,41.0,29.66,North,-999,-999.0,-999.0,79,-99.99,,,-99.99,Homeseer,2013-04-01 01:16:00,
2013-03-31 21:21:00,45.4,41.6,29.65,North,-999,-999.0,-999.0,82,-99.99,,,-99.99,Homeseer,2013-04-01 01:21:00,
2013-03-31 21:27:00,45.2,41.6,29.64,North,-999,-999.0,-999.0,83,-99.99,,,-99.99,Homeseer,2013-04-01 01:27:00,
2013-03-31 21:33:00,45.1,41.5,29.64,North,-999,-999.0,-999.0,83,-99.99,,,-99.99,Homeseer,2013-04-01 01:33:00,
2013-03-31 21:38:00,45.1,41.1,29.63,North,-999,-999.0,-999.0,81,-99.99,,,-99.99,Homeseer,2013-04-01 01:38:00,
2013-03-31 21:43:00,44.6,42.2,29.62,North,-999,-999.0,-999.0,88,-99.99,,,-99.99,Homeseer,2013-04-01 01:43:00,
2013-03-31 21:48:00,44.8,41.2,29.61,North,-999,-999.0,-999.0,83,-99.99,,,-99.99,Homeseer,2013-04-01 01:48:00,
2013-03-31 21:53:00,44.6,41.3,29.60,North,-999,-999.0,-999.0,84,-99.99,,,-99.99,Homeseer,2013-04-01 01:53:00,
2013-03-31 21:58:00,44.5,41.8,29.60,North,-999,-999.0,-999.0,87,-99.99,,,-99.99,Homeseer,2013-04-01 01:58:00,
2013-03-31 22:03:00,44.4,41.7,29.59,North,-999,-999.0,-999.0,87,-99.99,,,-99.99,Homeseer,2013-04-01 02:03:00,
2013-03-31 22:08:00,44.4,41.5,29.58,North,-999,-999.0,-999.0,86,-99.99,,,-99.99,Homeseer,2013-04-01 02:08:00,
2013-03-31 22:13:00,44.4,41.3,29.57,North,-999,-999.0,-999.0,85,-99.99,,,-99.99,Homeseer,2013-04-01 02:13:00,
2013-03-31 22:18:00,44.3,41.0,29.57,North,-999,-999.0,-999.0,84,-99.99,,,-99.99,Homeseer,2013-04-01 02:18:00,
2013-03-31 22:23:00,44.6,41.3,29.56,North,-999,-999.0,-999.0,84,-99.99,,,-99.99,Homeseer,2013-04-01 02:23:00,
2013-03-31 22:28:00,44.8,41.0,29.55,North,-999,-999.0,-999.0,82,-99.99,,,-99.99,Homeseer,2013-04-01 02:28:00,
2013-03-31 22:34:00,45.0,40.7,29.54,North,-999,-999.0,-999.0,80,-99.99,,,-99.99,Homeseer,2013-04-01 02:34:00,
2013-03-31 22:40:00,45.2,40.7,29.53,North,-999,-999.0,-999.0,79,-99.99,,,-99.99,Homeseer,2013-04-01 02:40:00,
2013-03-31 22:45:00,45.1,39.1,29.53,North,-999,-999.0,-999.0,73,-99.99,,,-99.99,Homeseer,2013-04-01 02:45:00,
2013-03-31 22:50:00,45.4,40.2,29.53,North,-999,-999.0,-999.0,76,-99.99,,,-99.99,Homeseer,2013-04-01 02:50:00,
2013-03-31 22:55:00,45.6,41.3,29.53,North,-999,-999.0,-999.0,80,-99.99,,,-99.99,Homeseer,2013-04-01 02:55:00,
2013-03-31 23:00:00,45.3,41.3,29.53,North,-999,-999.0,-999.0,81,-99.99,,,-99.99,Homeseer,2013-04-01 03:00:00,
2013-03-31 23:05:00,45.3,41.0,29.53,North,-999,-999.0,-999.0,80,-99.99,,,-99.99,Homeseer,2013-04-01 03:05:00,
2013-03-31 23:10:00,45.1,41.3,29.51,North,-999,-999.0,-999.0,82,-99.99,,,-99.99,Homeseer,2013-04-01 03:10:00,
2013-03-31 23:15:00,44.8,41.5,29.50,North,-999,-999.0,-999.0,84,-99.99,,,-99.99,Homeseer,2013-04-01 03:15:00,
2013-03-31 23:20:00,44.5,41.2,29.49,North,-999,-999.0,-999.0,84,-99.99,,,-99.99,Homeseer,2013-04-01 03:20:00,
2013-03-31 23:25:00,44.4,41.5,29.48,North,-999,-999.0,-999.0,86,-99.99,,,-99.99,Homeseer,2013-04-01 03:25:00,
2013-03-31 23:30:00,44.1,41.2,29.47,North,-999,-999.0,-999.0,86,-99.99,,,-99.99,Homeseer,2013-04-01 03:30:00,
2013-03-31 23:35:00,44.0,41.3,29.47,North,-999,-999.0,-999.0,87,-99.99,,,-99.99,Homeseer,2013-04-01 03:35:00,
2013-03-31 23:40:00,44.0,41.6,29.46,North,-999,-999.0,-999.0,88,-99.99,,,-99.99,Homeseer,2013-04-01 03:40:00,
2013-03-31 23:45:00,43.8,41.6,29.45,North,-999,-999.0,-999.0,89,-99.99,,,-99.99,Homeseer,2013-04-01 03:45:00,
2013-03-31 23:50:00,43.7,41.5,29.45,North,-999,-999.0,-999.0,89,-99.99,,,-99.99,Homeseer,2013-04-01 03:50:00,
2013-03-31 23:55:00,43.6,41.6,29.45,North,-999,-999.0,-999.0,90,-99.99,,,-99.99,Homeseer,2013-04-01 03:55:00,